createdAt,value
2022-11-16T00:01:03.250Z,7.00
2022-11-16T00:03:33.796Z,6.15
2022-11-16T00:06:03.948Z,4.93
2022-11-16T00:08:34.062Z,4.35
2022-11-16T00:11:07.247Z,4.57
2022-11-16T00:13:36.029Z,8.88
2022-11-16T00:16:07.529Z,4.18
2022-11-16T00:18:37.173Z,5.25
2022-11-16T00:21:06.509Z,4.65
2022-11-16T00:23:38.357Z,3.85
2022-11-16T00:26:09.500Z,7.63
2022-11-16T00:28:38.600Z,6.38
2022-11-16T00:31:08.859Z,4.82
2022-11-16T00:33:38.838Z,5.15
2022-11-16T00:36:09.164Z,5.15
2022-11-16T00:38:37.444Z,6.82
2022-11-16T00:41:07.856Z,3.75
2022-11-16T00:43:37.250Z,5.15
2022-11-16T00:46:07.220Z,6.97
2022-11-16T00:48:38.528Z,4.63
2022-11-16T00:51:07.581Z,3.50
2022-11-16T00:53:37.174Z,5.13
2022-11-16T00:56:06.046Z,6.72
2022-11-16T00:58:34.743Z,5.50
2022-11-16T01:01:08.158Z,5.65
2022-11-16T01:03:38.643Z,3.83
2022-11-16T01:06:09.373Z,5.93
2022-11-16T01:08:39.115Z,5.55
2022-11-16T01:11:27.137Z,7.72
2022-11-16T01:13:56.016Z,6.03
2022-11-16T01:16:25.436Z,8.15
2022-11-16T01:18:56.464Z,4.90
2022-11-16T01:21:25.684Z,7.82
2022-11-16T01:23:54.346Z,3.95
2022-11-16T01:26:22.643Z,5.43
2022-11-16T01:28:50.995Z,9.00
2022-11-16T01:31:19.614Z,6.07
2022-11-16T01:33:47.908Z,6.38
2022-11-16T01:36:17.992Z,5.95
2022-11-16T01:38:47.790Z,5.40
2022-11-16T01:41:18.253Z,5.32
2022-11-16T01:43:58.712Z,5.88
2022-11-16T01:46:30.123Z,8.15
2022-11-16T01:49:03.698Z,5.40
2022-11-16T01:51:35.862Z,5.30
2022-11-16T01:54:09.729Z,7.72
2022-11-16T01:56:39.527Z,7.53
2022-11-16T01:59:10.303Z,5.13
2022-11-16T02:01:40.745Z,6.32
2022-11-16T02:04:11.842Z,7.32
2022-11-16T02:06:56.970Z,6.38
2022-11-16T02:09:54.479Z,7.40
2022-11-16T02:12:54.549Z,6.75
2022-11-16T02:15:29.047Z,5.78
2022-11-16T02:18:14.807Z,10.88
2022-11-16T02:20:57.754Z,6.80
2022-11-16T02:23:53.488Z,4.82
2022-11-16T02:26:47.400Z,5.93
2022-11-16T02:29:25.592Z,8.43
2022-11-16T02:32:02.394Z,7.32
2022-11-16T02:34:38.707Z,6.90
2022-11-16T02:37:10.793Z,8.68
2022-11-16T02:39:43.880Z,8.88
2022-11-16T02:42:18.312Z,8.43
2022-11-16T02:44:50.953Z,8.80
2022-11-16T02:47:24.250Z,8.20
2022-11-16T02:49:57.397Z,9.82
2022-11-16T02:52:29.815Z,12.32
2022-11-16T02:54:58.345Z,12.02
2022-11-16T02:57:39.444Z,8.60
2022-11-16T03:00:12.871Z,8.18
2022-11-16T03:02:51.163Z,11.63
2022-11-16T03:05:31.944Z,8.65
2022-11-16T03:08:10.890Z,7.65
2022-11-16T03:10:59.159Z,10.38
2022-11-16T03:13:31.487Z,11.15
2022-11-16T03:16:04.011Z,11.80
2022-11-16T03:18:32.723Z,9.70
2022-11-16T03:21:11.194Z,15.77
2022-11-16T03:23:39.610Z,12.63
2022-11-16T03:26:09.869Z,15.77
2022-11-16T03:28:43.468Z,13.93
2022-11-16T03:31:18.129Z,10.10
2022-11-16T03:33:50.140Z,14.80
2022-11-16T03:36:24.601Z,11.90
2022-11-16T03:38:54.004Z,14.27
2022-11-16T03:41:24.164Z,12.15
2022-11-16T03:43:53.504Z,14.00
2022-11-16T03:46:25.158Z,13.93
2022-11-16T03:48:58.698Z,14.75
2022-11-16T03:51:29.535Z,14.00
2022-11-16T03:53:58.344Z,11.98
2022-11-16T03:56:26.584Z,10.90
2022-11-16T03:58:55.035Z,16.25
2022-11-16T04:01:24.943Z,12.90
2022-11-16T04:03:53.227Z,13.30
2022-11-16T04:06:39.020Z,12.45
2022-11-16T04:09:35.972Z,12.60
2022-11-16T04:12:21.690Z,12.45
2022-11-16T04:15:07.428Z,15.93
2022-11-16T04:17:54.200Z,14.10
2022-11-16T04:20:40.677Z,17.08
2022-11-16T04:23:30.896Z,14.20
2022-11-16T04:26:00.454Z,15.65
2022-11-16T04:28:31.022Z,15.18
2022-11-16T04:31:19.123Z,13.60
2022-11-16T04:34:07.759Z,14.43
2022-11-16T04:36:53.253Z,20.08
2022-11-16T04:39:21.435Z,21.45
2022-11-16T04:42:07.064Z,20.08
2022-11-16T04:44:50.392Z,19.58
2022-11-16T04:47:18.641Z,20.25
2022-11-16T04:49:48.237Z,19.13
2022-11-16T04:52:16.606Z,18.45
2022-11-16T04:54:44.853Z,23.67
2022-11-16T04:57:13.148Z,25.60
2022-11-16T04:59:41.420Z,27.42
2022-11-16T05:02:09.821Z,21.90
2022-11-16T05:04:38.969Z,26.08
2022-11-16T05:07:11.196Z,26.73
2022-11-16T05:09:43.136Z,24.73
2022-11-16T05:12:12.020Z,23.67
2022-11-16T05:14:40.174Z,25.45
2022-11-16T05:17:08.392Z,20.80
2022-11-16T05:19:54.669Z,26.52
2022-11-16T05:22:24.783Z,27.45
2022-11-16T05:24:53.401Z,24.25
2022-11-16T05:27:23.627Z,24.95
2022-11-16T05:29:52.142Z,27.35
2022-11-16T05:32:22.644Z,26.27
2022-11-16T05:34:50.941Z,26.95
2022-11-16T05:37:21.129Z,29.48
2022-11-16T05:39:50.814Z,29.17
2022-11-16T05:42:20.606Z,31.98
2022-11-16T05:44:49.354Z,27.75
2022-11-16T05:47:18.408Z,25.10
2022-11-16T05:49:46.997Z,31.65
2022-11-16T05:52:15.192Z,27.65
2022-11-16T05:54:44.022Z,30.90
2022-11-16T05:57:16.372Z,23.52
2022-11-16T05:59:45.035Z,32.35
2022-11-16T06:02:14.520Z,24.25
2022-11-16T06:04:42.746Z,30.73
2022-11-16T06:07:11.752Z,30.13
2022-11-16T06:09:40.072Z,30.65
2022-11-16T06:12:09.312Z,31.75
2022-11-16T06:14:38.940Z,27.13
2022-11-16T06:17:08.093Z,28.27
2022-11-16T06:19:36.518Z,29.98
2022-11-16T06:22:04.810Z,31.30
2022-11-16T06:24:33.014Z,30.85
2022-11-16T06:27:01.543Z,35.53
2022-11-16T06:29:29.747Z,29.98
2022-11-16T06:31:59.883Z,31.30
2022-11-16T06:34:28.705Z,26.20
2022-11-16T06:36:57.875Z,26.02
2022-11-16T06:39:26.209Z,26.63
2022-11-16T06:41:54.664Z,29.95
2022-11-16T06:44:22.932Z,27.98
2022-11-16T06:46:51.122Z,24.63
2022-11-16T06:49:20.689Z,24.58
2022-11-16T06:51:49.341Z,26.63
2022-11-16T06:54:18.098Z,26.23
2022-11-16T06:56:47.219Z,24.35
2022-11-16T06:59:15.564Z,25.35
2022-11-16T07:01:44.327Z,23.58
2022-11-16T07:04:12.821Z,25.25
2022-11-16T07:06:42.787Z,27.63
2022-11-16T07:09:11.365Z,23.40
2022-11-16T07:11:42.908Z,23.52
2022-11-16T07:14:11.797Z,27.70
2022-11-16T07:16:40.483Z,25.27
2022-11-16T07:19:10.109Z,26.50
2022-11-16T07:21:39.641Z,26.75
2022-11-16T07:24:09.286Z,27.35
2022-11-16T07:26:37.885Z,27.70
2022-11-16T07:29:06.405Z,26.42
2022-11-16T07:31:34.712Z,23.20
2022-11-16T07:34:03.022Z,25.15
2022-11-16T07:36:31.441Z,20.45
2022-11-16T07:38:59.662Z,25.38
2022-11-16T07:41:29.928Z,22.40
2022-11-16T07:43:58.091Z,23.52
2022-11-16T07:49:16.365Z,24.45
2022-11-16T07:51:45.729Z,23.05
2022-11-16T07:54:14.436Z,17.63
2022-11-16T07:56:44.721Z,19.20
2022-11-16T07:59:14.113Z,18.88
2022-11-16T08:01:42.394Z,19.23
2022-11-16T08:04:10.775Z,18.38
2022-11-16T08:06:39.027Z,15.60
2022-11-16T08:09:07.399Z,20.38
2022-11-16T08:11:39.296Z,16.25
2022-11-16T08:14:09.693Z,14.88
2022-11-16T08:16:37.892Z,16.65
2022-11-16T08:19:06.287Z,14.02
2022-11-16T08:21:35.515Z,17.80
2022-11-16T08:24:04.504Z,15.20
2022-11-16T08:26:32.971Z,16.27
2022-11-16T08:29:01.685Z,15.02
2022-11-16T08:31:31.337Z,16.95
2022-11-16T08:34:01.341Z,14.77
2022-11-16T08:36:29.925Z,18.08
2022-11-16T08:38:58.249Z,14.63
2022-11-16T08:41:26.476Z,13.50
2022-11-16T08:43:55.267Z,15.13
2022-11-16T08:46:23.515Z,17.25
2022-11-16T08:48:56.861Z,13.82
2022-11-16T08:51:26.309Z,16.35
2022-11-16T08:53:57.838Z,19.55
2022-11-16T08:56:27.240Z,13.93
2022-11-16T08:58:58.901Z,19.67
2022-11-16T09:01:29.477Z,18.00
2022-11-16T09:04:00.037Z,19.45
2022-11-16T09:06:29.071Z,12.98
2022-11-16T09:08:58.216Z,14.35
2022-11-16T09:11:27.235Z,15.07
2022-11-16T09:13:57.087Z,17.70
2022-11-16T09:16:26.669Z,13.85
2022-11-16T09:18:56.142Z,18.50
2022-11-16T09:21:27.139Z,13.15
2022-11-16T09:23:56.462Z,14.18
2022-11-16T09:26:26.610Z,12.10
2022-11-16T09:28:58.012Z,13.63
2022-11-16T09:31:27.483Z,10.38
2022-11-16T09:33:58.329Z,11.95
2022-11-16T09:36:28.739Z,11.65
2022-11-16T09:42:08.307Z,12.02
2022-11-16T09:44:59.073Z,8.82
2022-11-16T09:47:37.976Z,9.52
2022-11-16T09:50:08.233Z,13.18
2022-11-16T09:52:42.753Z,11.35
2022-11-16T09:55:25.652Z,11.13
2022-11-16T09:57:57.207Z,10.32
2022-11-16T10:00:26.841Z,9.18
2022-11-16T10:03:03.597Z,9.57
2022-11-16T10:05:38.519Z,9.05
2022-11-16T10:08:15.637Z,9.70
2022-11-16T10:10:55.248Z,9.32
2022-11-16T10:13:39.708Z,10.25
2022-11-16T10:16:14.700Z,9.75
2022-11-16T10:18:53.561Z,9.07
2022-11-16T10:21:38.364Z,9.50
2022-11-16T10:24:33.499Z,10.15
2022-11-16T10:27:19.249Z,11.63
2022-11-16T10:29:58.357Z,13.85
2022-11-16T10:32:30.500Z,11.32
2022-11-16T10:35:05.312Z,10.75
2022-11-16T10:37:36.916Z,12.63
2022-11-16T10:40:18.024Z,10.77
2022-11-16T10:42:51.965Z,9.75
2022-11-16T10:45:24.698Z,8.70
2022-11-16T10:47:58.220Z,9.52
2022-11-16T10:50:38.299Z,10.45
2022-11-16T10:53:07.242Z,10.75
2022-11-16T10:55:36.839Z,10.77
2022-11-16T10:58:08.439Z,10.35
2022-11-16T11:00:40.446Z,9.38
2022-11-16T11:03:10.752Z,11.07
2022-11-16T11:05:49.407Z,10.40
2022-11-16T11:08:27.426Z,12.32
2022-11-16T11:11:24.839Z,12.68
2022-11-16T11:14:09.849Z,11.68
2022-11-16T11:16:39.280Z,12.02
2022-11-16T11:19:25.393Z,12.75
2022-11-16T11:21:58.489Z,11.75
2022-11-16T11:24:45.121Z,12.75
2022-11-16T11:27:22.408Z,12.07
2022-11-16T11:29:54.309Z,13.73
2022-11-16T11:32:25.288Z,12.88
2022-11-16T11:34:55.324Z,13.95
2022-11-16T11:37:27.198Z,13.90
2022-11-16T11:40:21.255Z,12.75
2022-11-16T11:43:00.019Z,11.73
2022-11-16T11:45:43.973Z,12.50
2022-11-16T11:48:32.026Z,12.90
2022-11-16T11:51:04.243Z,14.55
2022-11-16T11:53:48.017Z,13.27
2022-11-16T11:56:17.116Z,13.48
2022-11-16T11:58:49.177Z,14.18
2022-11-16T12:01:49.258Z,14.15
2022-11-16T12:04:56.488Z,15.80
2022-11-16T12:07:47.512Z,14.45
2022-11-16T12:10:27.495Z,14.93
2022-11-16T12:13:12.885Z,16.13
2022-11-16T12:15:58.027Z,14.02
2022-11-16T12:18:46.132Z,17.73
2022-11-16T12:21:16.301Z,14.38
2022-11-16T12:24:19.436Z,12.27
2022-11-16T12:27:02.553Z,15.23
2022-11-16T12:29:39.744Z,15.05
2022-11-16T12:32:28.232Z,14.85
2022-11-16T12:35:09.456Z,14.00
2022-11-16T12:37:43.943Z,15.65
2022-11-16T12:40:30.200Z,18.10
2022-11-16T12:43:05.993Z,15.27
2022-11-16T12:45:59.191Z,13.95
2022-11-16T12:49:00.808Z,13.60
2022-11-16T12:51:45.374Z,14.00
2022-11-16T12:55:19.002Z,15.55
2022-11-16T13:00:29.205Z,11.30
2022-11-16T13:03:12.905Z,10.23
2022-11-16T13:05:53.713Z,9.75
2022-11-16T13:08:35.907Z,11.57
2022-11-16T13:11:12.620Z,8.40
2022-11-16T13:13:45.743Z,8.93
2022-11-16T13:16:18.022Z,8.27
2022-11-16T13:18:47.860Z,7.32
2022-11-16T13:21:26.708Z,7.38
2022-11-16T13:24:09.119Z,6.82
2022-11-16T13:26:45.777Z,8.18
2022-11-16T13:29:23.669Z,8.13
2022-11-16T13:32:01.075Z,6.78
2022-11-16T13:34:33.878Z,7.18
2022-11-16T13:37:39.329Z,7.07
2022-11-16T13:40:29.825Z,7.35
2022-11-16T13:43:17.829Z,8.40
2022-11-16T13:45:54.770Z,10.10
2022-11-16T13:48:27.271Z,7.70
2022-11-16T13:50:57.917Z,11.63
2022-11-16T13:54:32.668Z,7.93
2022-11-16T13:56:25.532Z,9.43
2022-11-16T13:58:58.316Z,6.43
2022-11-16T14:01:27.014Z,7.32
2022-11-16T14:04:34.031Z,7.90
2022-11-16T14:07:04.026Z,6.85
2022-11-16T14:09:49.941Z,5.15
2022-11-16T14:13:00.815Z,4.53
2022-11-16T14:15:31.707Z,4.97
2022-11-16T14:18:03.531Z,5.45
2022-11-16T14:20:59.498Z,7.45
2022-11-16T14:24:01.223Z,5.35
2022-11-16T14:26:44.269Z,6.70
2022-11-16T14:29:29.205Z,6.80
2022-11-16T14:31:59.437Z,6.28
2022-11-16T14:34:32.190Z,4.57
2022-11-16T14:37:01.716Z,7.18
2022-11-16T14:39:35.301Z,5.30
2022-11-16T14:42:07.177Z,9.98
2022-11-16T14:44:39.745Z,6.25
2022-11-16T14:47:23.299Z,5.30
2022-11-16T14:49:52.538Z,5.43
2022-11-16T14:52:28.961Z,6.05
2022-11-16T14:55:01.623Z,4.63
2022-11-16T14:57:31.382Z,4.35
2022-11-16T15:00:11.714Z,4.20
2022-11-16T15:02:41.868Z,4.97
2022-11-16T15:05:16.814Z,7.03
2022-11-16T15:07:49.736Z,8.50
2022-11-16T15:10:20.482Z,4.43
2022-11-16T15:12:52.551Z,10.07
2022-11-16T15:15:24.579Z,4.78
2022-11-16T15:18:07.626Z,4.88
2022-11-16T15:20:38.616Z,3.35
2022-11-16T15:23:15.448Z,3.30
2022-11-16T15:25:45.530Z,5.20
2022-11-16T15:28:22.354Z,4.22
2022-11-16T15:30:56.298Z,8.75
2022-11-16T15:33:28.613Z,6.38
2022-11-16T15:35:57.274Z,4.70
2022-11-16T15:38:28.564Z,5.70
2022-11-16T15:40:59.043Z,5.78
2022-11-16T15:43:33.701Z,5.38
2022-11-16T15:46:04.345Z,5.25
2022-11-16T15:48:34.364Z,8.18
2022-11-16T15:51:09.264Z,6.47
2022-11-16T15:53:40.410Z,6.05
2022-11-16T15:56:13.112Z,5.13
2022-11-16T15:58:43.971Z,8.07
2022-11-16T16:01:14.195Z,8.70
2022-11-16T16:03:52.714Z,6.80
2022-11-16T16:06:45.508Z,3.28
2022-11-16T16:09:22.175Z,5.90
2022-11-16T16:11:51.181Z,5.32
2022-11-16T16:14:29.489Z,6.90
2022-11-16T16:16:59.719Z,12.85
2022-11-16T16:19:37.676Z,7.45
2022-11-16T16:22:07.695Z,10.80
2022-11-16T16:24:40.053Z,10.50
2022-11-16T16:27:17.602Z,11.13
2022-11-16T16:29:48.288Z,4.38
2022-11-16T16:32:25.928Z,5.50
2022-11-16T16:34:55.649Z,7.47
2022-11-16T16:37:24.357Z,5.50
2022-11-16T16:39:52.540Z,6.95
2022-11-16T16:42:20.958Z,4.60
2022-11-16T16:44:51.030Z,8.43
2022-11-16T16:47:21.644Z,5.32
2022-11-16T16:49:50.295Z,9.18
2022-11-16T16:52:19.141Z,8.60
2022-11-16T16:54:47.529Z,4.55
2022-11-16T16:57:16.766Z,6.32
2022-11-16T16:59:48.159Z,4.30
2022-11-16T17:02:19.119Z,6.80
2022-11-16T17:04:48.501Z,5.82
2022-11-16T17:07:17.477Z,3.92
2022-11-16T17:09:45.825Z,6.55
2022-11-16T17:12:14.254Z,5.75
2022-11-16T17:14:42.536Z,3.72
2022-11-16T17:17:11.325Z,6.28
2022-11-16T17:19:40.857Z,4.63
2022-11-16T17:22:09.020Z,10.13
2022-11-16T17:24:37.487Z,6.68
2022-11-16T17:27:08.541Z,5.63
2022-11-16T17:29:36.882Z,4.43
2022-11-16T17:32:06.166Z,3.72
2022-11-16T17:34:35.197Z,6.50
2022-11-16T17:37:05.158Z,10.55
2022-11-16T17:39:33.385Z,6.15
2022-11-16T17:42:01.572Z,6.20
2022-11-16T17:44:30.386Z,7.97
2022-11-16T17:46:59.625Z,5.15
2022-11-16T17:49:28.003Z,12.13
2022-11-16T17:51:56.208Z,22.23
2022-11-16T17:54:25.947Z,13.70
2022-11-16T17:56:54.191Z,17.00
2022-11-16T17:59:29.030Z,19.70
2022-11-16T18:01:58.397Z,14.70
2022-11-16T18:04:27.161Z,20.58
2022-11-16T18:06:56.078Z,15.85
2022-11-16T18:09:25.709Z,13.43
2022-11-16T18:11:57.160Z,16.58
2022-11-16T18:14:26.782Z,12.93
2022-11-16T18:16:55.082Z,20.52
2022-11-16T18:19:23.441Z,15.25
2022-11-16T18:21:51.784Z,15.95
2022-11-16T18:24:20.000Z,11.05
2022-11-16T18:26:49.787Z,9.88
2022-11-16T18:29:19.247Z,11.70
2022-11-16T18:31:47.598Z,12.15
2022-11-16T18:34:16.784Z,11.27
2022-11-16T18:36:46.327Z,12.13
2022-11-16T18:39:15.370Z,21.08
2022-11-16T18:41:51.533Z,16.13
2022-11-16T18:44:24.739Z,13.05
2022-11-16T18:46:53.044Z,12.77
2022-11-16T18:49:21.937Z,17.33
2022-11-16T18:51:50.188Z,11.98
2022-11-16T18:54:18.425Z,18.35
2022-11-16T18:56:46.821Z,17.42
2022-11-16T18:59:15.298Z,25.73
2022-11-16T19:01:45.624Z,17.38
2022-11-16T19:04:14.141Z,38.90
2022-11-16T19:06:42.309Z,51.53
2022-11-16T19:09:11.464Z,16.00
2022-11-16T19:11:39.838Z,18.50
2022-11-16T19:14:08.896Z,15.25
2022-11-16T19:16:41.884Z,13.07
2022-11-16T19:19:15.715Z,17.38
2022-11-16T19:21:43.913Z,12.52
2022-11-16T19:24:12.340Z,11.63
2022-11-16T19:26:40.543Z,11.73
2022-11-16T19:29:08.778Z,21.15
2022-11-16T19:31:36.967Z,30.52
2022-11-16T19:34:06.807Z,22.50
2022-11-16T19:36:38.361Z,33.83
2022-11-16T19:39:07.222Z,78.70
2022-11-16T19:41:36.197Z,39.03
2022-11-16T19:44:04.737Z,77.15
2022-11-16T19:46:33.920Z,124.32
2022-11-16T19:49:02.529Z,51.47
2022-11-16T19:51:32.178Z,185.05
2022-11-16T19:54:02.480Z,37.38
2022-11-16T19:56:31.102Z,130.75
2022-11-16T19:58:59.521Z,62.38
2022-11-16T20:01:29.800Z,123.18
2022-11-16T20:03:59.961Z,97.03
2022-11-16T20:06:30.046Z,31.55
2022-11-16T20:09:00.743Z,33.25
2022-11-16T20:11:33.739Z,29.63
2022-11-16T20:14:03.383Z,83.60
2022-11-16T20:16:38.132Z,76.63
2022-11-16T20:19:07.884Z,50.88
2022-11-16T20:21:37.698Z,75.90
2022-11-16T20:24:08.645Z,66.97
2022-11-16T20:27:07.697Z,57.30
2022-11-16T20:29:36.339Z,29.42
2022-11-16T20:32:04.514Z,27.40
2022-11-16T20:34:32.719Z,26.58
2022-11-16T20:37:01.767Z,37.97
2022-11-16T20:39:30.531Z,27.05
2022-11-16T20:41:58.764Z,26.10
2022-11-16T20:44:28.458Z,30.40
2022-11-16T20:46:56.640Z,35.40
2022-11-16T20:49:24.839Z,31.42
2022-11-16T20:51:53.812Z,37.65
2022-11-16T20:54:24.521Z,30.40
2022-11-16T20:56:52.857Z,42.65
2022-11-16T20:59:21.828Z,41.85
2022-11-16T21:01:53.501Z,45.83
2022-11-16T21:04:21.809Z,40.58
2022-11-16T21:06:50.418Z,38.72
2022-11-16T21:09:22.788Z,42.42
2022-11-16T21:12:08.492Z,39.53
2022-11-16T21:14:36.693Z,34.88
2022-11-16T21:17:06.889Z,42.90
2022-11-16T21:19:35.097Z,39.35
2022-11-16T21:22:03.531Z,42.03
2022-11-16T21:24:32.281Z,42.17
2022-11-16T21:27:00.563Z,37.65
2022-11-16T21:29:28.884Z,39.75
2022-11-16T21:31:57.120Z,35.90
2022-11-16T21:34:28.632Z,35.28
2022-11-16T21:36:57.082Z,33.13
2022-11-16T21:39:25.547Z,35.65
2022-11-16T21:41:53.862Z,31.77
2022-11-16T21:44:22.015Z,34.17
2022-11-16T21:46:50.569Z,37.53
2022-11-16T21:49:18.809Z,28.92
2022-11-16T21:51:48.412Z,33.35
2022-11-16T21:54:17.272Z,30.60
2022-11-16T21:56:46.264Z,35.53
2022-11-16T21:59:14.892Z,36.78
2022-11-16T22:02:01.316Z,33.17
2022-11-16T22:04:46.905Z,35.70
2022-11-16T22:07:36.851Z,32.85
2022-11-16T22:10:08.523Z,29.52
2022-11-16T22:12:37.984Z,29.70
2022-11-16T22:15:08.233Z,30.13
2022-11-16T22:17:36.636Z,33.88
2022-11-16T22:20:05.388Z,30.95
2022-11-16T22:22:35.000Z,32.42
2022-11-16T22:25:04.051Z,34.00
2022-11-16T22:27:32.522Z,37.40
2022-11-16T22:30:04.254Z,32.47
2022-11-16T22:32:33.680Z,33.55
2022-11-16T22:35:02.039Z,31.33
2022-11-16T22:37:30.431Z,36.50
2022-11-16T22:40:00.188Z,37.85
2022-11-16T22:42:28.482Z,36.55
2022-11-16T22:44:56.737Z,36.55
2022-11-16T22:47:24.907Z,35.38
2022-11-16T22:49:53.675Z,44.60
2022-11-16T22:52:22.076Z,34.55
2022-11-16T22:54:50.871Z,39.40
2022-11-16T22:57:23.495Z,37.50
2022-11-16T22:59:51.709Z,40.97
2022-11-16T23:02:20.679Z,38.08
2022-11-16T23:04:49.521Z,36.40
2022-11-16T23:07:21.025Z,38.75
2022-11-16T23:09:49.641Z,33.15
2022-11-16T23:12:36.304Z,34.20
2022-11-16T23:15:24.254Z,37.72
2022-11-16T23:17:52.632Z,35.83
2022-11-16T23:20:52.657Z,42.00
2022-11-16T23:23:39.033Z,42.05
2022-11-16T23:26:31.432Z,32.90
2022-11-16T23:28:59.938Z,33.50
2022-11-16T23:31:30.936Z,35.65
2022-11-16T23:33:59.332Z,34.95
2022-11-16T23:36:27.970Z,36.63
2022-11-16T23:38:56.737Z,32.22
2022-11-16T23:41:41.757Z,33.42
2022-11-16T23:44:10.016Z,34.53
2022-11-16T23:46:39.589Z,31.88
2022-11-16T23:49:07.922Z,33.25
2022-11-16T23:51:36.475Z,30.65
2022-11-16T23:54:06.792Z,33.78
2022-11-16T23:56:35.001Z,34.22
2022-11-16T23:59:03.807Z,34.53
